Alfred, Texas
Current Conditions -  °F | °C
As of 10:53 PM on Friday 24 Oct 2014 (Local Time) from KALI Reporting Station
Clear Clear  
Wind Chill: 66°   Ceiling: Unl
Heat Index: 66°   Visibility: 10mi
Dew Point: 60°   Wind: 3mph
Humidity: 81%   Direction: 190°S
Pressure: 30.14"   Gusts: NA
Location:  27.6821°N, 98.1034°W
Report Text: KALI 250353Z AUTO 19003KT 10SM CLR 19/16 A3014 RMK AO2 SLP202 T01890156
Loading
Personal Weather Stations






























Interactive Weather Map
Tropical Storm Tracking
New forecast layout! Learn more

10-Day Weather Forecast

Advertisements
Track Severe Weather on mobile